Time;durP1;ratioP1;P1;durP2;ratioP2;P2;SDS_P1;SDS_P2;PMS_P1;PMS_P2;Temp;Humidity;BMP_temperature;BMP_pressure;BME280_temperature;BME280_humidity;BME280_pressure;Samples;Min_cycle;Max_cycle;Signal;HPM_P1;HPM_P2
2023/03/09 00:01:53;;;;;;;0.00;0.00;;;;;;;6.71;54.51;98755.03;7328392;19;20585;-58
2023/03/09 00:04:18;;;;;;;0.10;0.10;;;;;;;6.71;55.11;98757.63;7330103;19;20115;-58
2023/03/09 00:06:44;;;;;;;0.00;0.00;;;;;;;6.67;55.10;98755.19;7327064;19;20033;-58
2023/03/09 00:09:10;;;;;;;0.00;0.00;;;;;;;6.69;55.25;98763.75;7330523;19;20006;-59
2023/03/09 00:11:40;;;;;;;0.00;0.00;;;;;;;6.59;55.67;98747.72;7334330;19;20013;-58
2023/03/09 00:14:05;;;;;;;0.03;0.03;;;;;;;6.69;55.72;98766.34;7340435;19;20750;-59
2023/03/09 00:16:30;;;;;;;0.00;0.00;;;;;;;6.68;55.68;98764.66;7336936;19;20007;-58
2023/03/09 00:18:59;;;;;;;0.10;0.10;;;;;;;6.59;55.54;98742.53;7344528;19;20023;-58
2023/03/09 00:21:36;;;;;;;0.00;0.00;;;;;;;6.71;55.69;98761.97;7341402;19;20139;-58
2023/03/09 00:24:13;;;;;;;0.00;0.00;;;;;;;6.71;55.41;98759.38;7337501;19;20861;-58
2023/03/09 00:26:41;;;;;;;0.10;0.10;;;;;;;6.73;55.21;98770.53;7340594;19;20605;-58
2023/03/09 00:29:08;;;;;;;0.00;0.00;;;;;;;6.72;55.09;98769.69;7341359;19;20048;-58
2023/03/09 00:31:34;;;;;;;0.00;0.00;;;;;;;6.62;54.78;98757.97;7340355;19;20010;-59
2023/03/09 00:34:00;;;;;;;0.10;0.10;;;;;;;6.73;54.45;98775.72;7340086;19;20010;-59
2023/03/09 00:36:26;;;;;;;0.00;0.00;;;;;;;6.72;55.19;98774.03;7343048;19;20837;-58
2023/03/09 00:38:53;;;;;;;0.00;0.00;;;;;;;6.70;55.29;98771.50;7343088;19;20003;-58
2023/03/09 00:41:20;;;;;;;0.00;0.00;;;;;;;6.73;55.71;98786.09;7342748;19;21059;-58
2023/03/09 00:43:45;;;;;;;0.10;0.10;;;;;;;6.72;55.81;98779.22;7336710;19;19999;-58
2023/03/09 00:46:11;;;;;;;0.00;0.00;;;;;;;6.70;55.64;98775.84;7343014;19;20859;-58
2023/03/09 00:48:37;;;;;;;0.00;0.00;;;;;;;6.69;55.96;98775.00;7343804;19;20006;-58
2023/03/09 00:51:03;;;;;;;0.05;0.05;;;;;;;6.68;56.11;98780.22;7340777;19;20494;-58
2023/03/09 00:53:28;;;;;;;0.00;0.00;;;;;;;6.66;56.19;98782.88;7336314;19;21032;-59
2023/03/09 00:55:54;;;;;;;0.00;0.00;;;;;;;6.66;56.11;98782.88;7343487;19;20035;-58
2023/03/09 00:58:19;;;;;;;0.00;0.00;;;;;;;6.60;56.30;98779.69;7339362;19;20002;-58
2023/03/09 01:00:44;;;;;;;0.00;0.00;;;;;;;6.62;56.19;98775.28;7341455;19;20011;-58
2023/03/09 01:03:10;;;;;;;0.05;0.05;;;;;;;6.64;56.25;98792.50;7341611;19;20086;-57
2023/03/09 01:05:37;;;;;;;0.08;0.08;;;;;;;6.64;56.63;98786.44;7341873;19;20014;-58
2023/03/09 01:08:02;;;;;;;0.10;0.10;;;;;;;6.62;57.05;98777.88;7333665;19;20006;-58
2023/03/09 01:10:28;;;;;;;0.00;0.00;;;;;;;6.61;56.79;98782.22;7341645;19;19998;-58
2023/03/09 01:12:54;;;;;;;0.10;0.10;;;;;;;6.60;56.89;98770.16;7339003;19;20017;-58
2023/03/09 01:15:20;;;;;;;0.03;0.03;;;;;;;6.52;56.99;98750.59;7338797;19;20011;-57
2023/03/09 01:17:47;;;;;;;0.10;0.10;;;;;;;6.61;57.10;98760.63;7341350;19;20032;-59
2023/03/09 01:20:13;;;;;;;0.10;0.10;;;;;;;6.47;57.00;98738.63;7339922;19;20016;-58
2023/03/09 01:22:39;;;;;;;0.00;0.00;;;;;;;6.59;57.25;98755.50;7338303;19;20007;-58
2023/03/09 01:25:05;;;;;;;0.00;0.00;;;;;;;6.58;57.07;98751.19;7337610;19;20603;-58
2023/03/09 01:27:30;;;;;;;0.08;0.08;;;;;;;6.57;56.82;98746.91;7339925;19;20575;-58
2023/03/09 01:29:56;;;;;;;0.00;0.00;;;;;;;6.57;57.10;98748.69;7340361;19;20018;-58
2023/03/09 01:32:21;;;;;;;0.10;0.10;;;;;;;6.55;56.96;98760.88;7337819;19;20018;-57
2023/03/09 01:34:47;;;;;;;0.00;0.00;;;;;;;6.53;57.20;98770.44;7339306;19;20015;-58
2023/03/09 01:37:12;;;;;;;0.05;0.05;;;;;;;6.42;57.49;98756.13;7339105;19;20031;-58
2023/03/09 01:39:38;;;;;;;0.05;0.05;;;;;;;6.40;57.17;98754.50;7342919;19;20029;-58
2023/03/09 01:42:03;;;;;;;0.00;0.00;;;;;;;6.46;57.26;98773.25;7340345;19;20458;-59
2023/03/09 01:44:29;;;;;;;0.00;0.00;;;;;;;6.44;57.71;98775.06;7340538;19;20014;-58
2023/03/09 01:46:56;;;;;;;0.00;0.00;;;;;;;6.39;57.37;98765.78;7340470;19;20018;-58
2023/03/09 01:49:32;;;;;;;0.00;0.00;;;;;;;6.40;56.80;98773.47;7340303;19;20792;-59
2023/03/09 01:52:14;;;;;;;0.00;0.00;;;;;;;6.38;57.10;98775.28;7336376;19;20011;-58
2023/03/09 01:54:43;;;;;;;0.00;0.00;;;;;;;6.36;57.52;98777.09;7338315;19;20050;-58
2023/03/09 01:57:26;;;;;;;0.00;0.00;;;;;;;6.35;56.62;98770.22;7341088;19;20463;-58
2023/03/09 01:59:55;;;;;;;0.00;0.00;;;;;;;6.32;58.03;98770.31;7338399;19;20873;-57
2023/03/09 02:02:24;;;;;;;0.00;0.00;;;;;;;6.31;58.21;98773.81;7337921;19;20022;-58
2023/03/09 02:04:55;;;;;;;0.00;0.00;;;;;;;6.31;57.71;98758.25;7331580;19;20022;-58
2023/03/09 02:07:23;;;;;;;0.00;0.00;;;;;;;6.29;58.14;98759.25;7336737;19;20054;-58
2023/03/09 02:09:54;;;;;;;0.00;0.00;;;;;;;6.27;58.04;98754.09;7341301;19;20010;-58
2023/03/09 02:12:21;;;;;;;0.10;0.10;;;;;;;6.26;58.03;98751.56;7342698;19;20506;-59
2023/03/09 02:14:47;;;;;;;0.00;0.00;;;;;;;6.04;57.87;98717.81;7338505;19;20117;-58
2023/03/09 02:17:13;;;;;;;0.00;0.00;;;;;;;6.22;58.34;98751.66;7340583;19;20352;-58
2023/03/09 02:20:06;;;;;;;0.00;0.00;;;;;;;6.23;57.53;98760.28;7344367;19;20011;-58
2023/03/09 02:22:36;;;;;;;0.00;0.00;;;;;;;6.10;57.64;98733.97;7343043;19;20022;-58
2023/03/09 02:25:16;;;;;;;0.10;0.10;;;;;;;6.16;57.91;98748.44;7338027;19;20015;-59
2023/03/09 02:27:41;;;;;;;0.05;0.05;;;;;;;6.15;58.50;98746.78;7341019;19;20824;-58
2023/03/09 02:30:09;;;;;;;0.10;0.10;;;;;;;6.13;58.05;98733.00;7339591;19;20011;-59
2023/03/09 02:32:34;;;;;;;0.00;0.00;;;;;;;6.10;58.10;98733.13;7340667;19;20015;-58
2023/03/09 02:35:00;;;;;;;0.00;0.00;;;;;;;6.08;58.09;98722.81;7346708;19;20018;-58
2023/03/09 02:37:35;;;;;;;0.10;0.10;;;;;;;6.07;58.49;98722.88;7345290;19;20036;-58
2023/03/09 02:40:13;;;;;;;0.00;0.00;;;;;;;6.01;57.50;98712.72;7345837;19;20010;-58
2023/03/09 02:42:39;;;;;;;0.03;0.03;;;;;;;6.02;58.21;98715.25;7345625;19;20022;-58
2023/03/09 02:45:06;;;;;;;0.00;0.00;;;;;;;5.98;58.08;98709.34;7349601;19;20055;-58
2023/03/09 02:47:32;;;;;;;0.00;0.00;;;;;;;5.98;58.73;98711.94;7345797;19;20781;-58
2023/03/09 02:49:58;;;;;;;0.10;0.10;;;;;;;5.98;58.89;98714.53;7345414;19;20457;-58
2023/03/09 02:52:23;;;;;;;0.00;0.00;;;;;;;5.99;58.79;98723.16;7346683;19;20018;-58
2023/03/09 02:54:48;;;;;;;0.10;0.10;;;;;;;6.01;58.36;98717.91;7349618;19;20015;-58
2023/03/09 02:57:15;;;;;;;0.00;0.00;;;;;;;6.00;58.61;98716.22;7344879;19;20626;-59
2023/03/09 02:59:40;;;;;;;0.00;0.00;;;;;;;6.01;58.50;98707.53;7334613;19;20014;-59
2023/03/09 03:02:06;;;;;;;0.10;0.10;;;;;;;6.04;58.22;98723.00;7342234;19;20719;-58
2023/03/09 03:04:32;;;;;;;0.00;0.00;;;;;;;6.03;58.33;98705.72;7346541;19;20010;-59
2023/03/09 03:06:58;;;;;;;0.00;0.00;;;;;;;6.06;58.49;98713.41;7347194;19;20364;-58
2023/03/09 03:09:23;;;;;;;0.10;0.10;;;;;;;6.06;58.02;98705.63;7346082;19;20034;-58
2023/03/09 03:11:49;;;;;;;0.05;0.05;;;;;;;6.08;57.91;98698.63;7347452;19;20018;-58
2023/03/09 03:14:14;;;;;;;0.10;0.10;;;;;;;6.10;57.76;98699.44;7341114;19;20019;-59
2023/03/09 03:16:39;;;;;;;0.10;0.10;;;;;;;6.11;57.40;98693.34;7348126;19;20018;-58
2023/03/09 03:19:05;;;;;;;0.10;0.10;;;;;;;6.12;57.82;98695.03;7348379;19;20018;-58
2023/03/09 03:21:30;;;;;;;0.00;0.00;;;;;;;6.13;57.66;98696.72;7338794;19;20478;-59
2023/03/09 03:23:56;;;;;;;0.00;0.00;;;;;;;6.14;57.33;98693.25;7350289;19;20014;-58
2023/03/09 03:26:21;;;;;;;0.08;0.08;;;;;;;6.09;57.14;98687.41;7347873;19;20039;-58
2023/03/09 03:28:47;;;;;;;0.10;0.10;;;;;;;6.15;57.44;98697.53;7352324;19;20017;-58
2023/03/09 03:31:12;;;;;;;0.10;0.10;;;;;;;6.16;56.28;98694.03;7350277;19;20030;-58
2023/03/09 03:33:37;;;;;;;0.00;0.00;;;;;;;6.16;56.68;98701.81;7349359;19;20089;-58
2023/03/09 03:36:03;;;;;;;0.10;0.10;;;;;;;5.77;56.65;98627.19;7350226;19;20006;-58
2023/03/09 03:38:29;;;;;;;0.10;0.10;;;;;;;6.09;56.03;98679.63;7349387;19;20068;-58
2023/03/09 03:40:54;;;;;;;0.08;0.08;;;;;;;6.16;56.56;98702.66;7348736;19;20814;-58
2023/03/09 03:43:20;;;;;;;0.00;0.00;;;;;;;6.16;57.12;98691.44;7347924;19;20089;-58
2023/03/09 03:45:45;;;;;;;0.00;0.00;;;;;;;6.16;56.90;98686.25;7350513;19;20014;-58
2023/03/09 03:48:11;;;;;;;0.00;0.00;;;;;;;6.14;57.01;98686.31;7351108;19;20015;-58
2023/03/09 03:50:36;;;;;;;0.08;0.08;;;;;;;6.15;57.44;98689.75;7353172;19;20014;-58
2023/03/09 03:53:03;;;;;;;0.00;0.00;;;;;;;6.15;57.17;98684.56;7352482;19;20021;-58
2023/03/09 03:55:28;;;;;;;0.10;0.10;;;;;;;6.13;57.17;98686.34;7353729;19;20651;-58
2023/03/09 03:57:54;;;;;;;0.00;0.00;;;;;;;6.16;56.60;98686.25;7352576;19;20018;-58
2023/03/09 04:00:19;;;;;;;0.10;0.10;;;;;;;6.15;57.14;98684.56;7353235;19;20617;-58
2023/03/09 04:02:46;;;;;;;0.00;0.00;;;;;;;6.03;57.29;98659.94;7352063;19;20006;-58
2023/03/09 04:05:12;;;;;;;0.00;0.00;;;;;;;6.15;57.45;98684.56;7316834;19;20015;-58
2023/03/09 04:07:37;;;;;;;0.00;0.00;;;;;;;6.11;57.52;98677.81;7348017;19;20127;-58
2023/03/09 04:10:03;;;;;;;0.10;0.10;;;;;;;6.15;57.86;98679.41;7354666;19;20465;-58
2023/03/09 04:12:29;;;;;;;0.10;0.10;;;;;;;6.05;57.59;98657.31;7355893;19;20796;-58
2023/03/09 04:14:55;;;;;;;0.10;0.10;;;;;;;6.15;57.65;98674.22;7354552;19;20010;-59
2023/03/09 04:17:20;;;;;;;0.10;0.10;;;;;;;6.14;57.71;98662.16;7355386;19;20794;-59
2023/03/09 04:19:46;;;;;;;0.10;0.10;;;;;;;6.14;57.83;98662.16;7347122;19;20007;-58
2023/03/09 04:22:11;;;;;;;0.00;0.00;;;;;;;6.13;57.95;98660.44;7348175;19;20006;-59
2023/03/09 04:24:37;;;;;;;0.00;0.00;;;;;;;6.15;57.76;98653.47;7352191;19;20027;-58
2023/03/09 04:27:02;;;;;;;0.10;0.10;;;;;;;6.13;57.73;98660.44;7354385;19;20085;-58
2023/03/09 04:29:28;;;;;;;0.10;0.10;;;;;;;6.13;57.50;98660.44;7355330;19;20014;-58
2023/03/09 04:31:53;;;;;;;0.10;0.10;;;;;;;6.12;57.41;98654.41;7357810;19;20022;-58
2023/03/09 04:34:18;;;;;;;0.10;0.10;;;;;;;6.12;57.88;98659.59;7353072;19;20015;-57
2023/03/09 04:36:44;;;;;;;0.10;0.10;;;;;;;6.11;57.89;98657.06;7355308;19;20057;-58
2023/03/09 04:39:09;;;;;;;0.10;0.10;;;;;;;6.09;58.11;98653.72;7354629;19;20010;-58
2023/03/09 04:41:35;;;;;;;0.10;0.10;;;;;;;6.07;58.33;98651.16;7357128;19;20089;-58
2023/03/09 04:44:01;;;;;;;0.10;0.10;;;;;;;6.08;58.07;98652.00;7358627;19;20471;-58
2023/03/09 04:46:26;;;;;;;0.00;0.00;;;;;;;6.03;57.91;98646.16;7352090;19;20014;-58
2023/03/09 04:48:52;;;;;;;0.00;0.00;;;;;;;6.07;58.51;98647.72;7359758;19;20010;-58
2023/03/09 04:51:17;;;;;;;0.00;0.00;;;;;;;6.07;58.20;98639.94;7355974;19;20681;-59
2023/03/09 04:53:42;;;;;;;0.00;0.00;;;;;;;6.06;58.21;98628.75;7358667;19;20010;-58
2023/03/09 04:56:08;;;;;;;0.00;0.00;;;;;;;6.05;58.42;98634.00;7353940;19;20014;-58
2023/03/09 04:58:33;;;;;;;0.10;0.10;;;;;;;6.06;57.53;98627.91;7354230;19;20574;-58
2023/03/09 05:01:00;;;;;;;0.10;0.10;;;;;;;5.92;58.78;98611.13;7354939;19;20051;-58
2023/03/09 05:03:26;;;;;;;0.05;0.05;;;;;;;5.94;58.39;98619.69;7356564;19;20014;-58
2023/03/09 05:05:52;;;;;;;0.10;0.10;;;;;;;6.02;58.56;98623.72;7356986;19;21096;-58
2023/03/09 05:08:17;;;;;;;0.10;0.10;;;;;;;5.98;59.11;98629.06;7354950;19;20037;-58
2023/03/09 05:10:43;;;;;;;0.00;0.00;;;;;;;6.00;58.42;98630.72;7356396;19;20006;-59
2023/03/09 05:13:08;;;;;;;0.10;0.10;;;;;;;6.00;58.69;98633.31;7358441;19;20010;-58
2023/03/09 05:15:34;;;;;;;0.00;0.00;;;;;;;5.78;58.85;98603.00;7353019;19;20092;-58
2023/03/09 05:17:59;;;;;;;0.00;0.00;;;;;;;5.97;59.07;98629.94;7352838;19;20701;-59
2023/03/09 05:20:26;;;;;;;0.00;0.00;;;;;;;5.94;59.28;98624.88;7356535;19;20003;-59
2023/03/09 05:22:54;;;;;;;0.00;0.00;;;;;;;5.95;59.33;98621.38;7356762;19;20010;-58
2023/03/09 05:25:19;;;;;;;0.10;0.10;;;;;;;5.93;59.10;98628.38;7354831;19;20022;-58
2023/03/09 05:27:45;;;;;;;0.00;0.00;;;;;;;5.93;59.66;98628.38;7354742;19;20742;-58
2023/03/09 05:30:10;;;;;;;0.10;0.10;;;;;;;5.93;59.44;98627.50;7356955;19;20039;-58
2023/03/09 05:32:36;;;;;;;0.10;0.10;;;;;;;5.93;58.77;98638.75;7353755;19;20348;-58
2023/03/09 05:35:02;;;;;;;0.00;0.00;;;;;;;5.92;59.33;98642.19;7358036;19;20010;-58
2023/03/09 05:37:27;;;;;;;0.10;0.10;;;;;;;5.92;59.27;98634.44;7349346;19;20013;-58
2023/03/09 05:39:52;;;;;;;0.00;0.00;;;;;;;5.91;59.25;98634.47;7356637;19;20006;-58
2023/03/09 05:42:18;;;;;;;0.03;0.03;;;;;;;5.91;59.62;98619.78;7348630;19;20019;-58
2023/03/09 05:44:43;;;;;;;0.00;0.00;;;;;;;5.90;59.16;98617.25;7357168;19;20007;-58
2023/03/09 05:47:09;;;;;;;0.00;0.00;;;;;;;5.89;59.65;98616.41;7353096;19;20010;-57
2023/03/09 05:49:34;;;;;;;0.00;0.00;;;;;;;5.86;59.66;98619.09;7355018;19;20356;-58
2023/03/09 05:52:00;;;;;;;0.10;0.10;;;;;;;5.87;59.53;98618.19;7350075;19;20028;-58
2023/03/09 05:54:26;;;;;;;0.00;0.00;;;;;;;5.86;59.21;98616.50;7354673;19;20013;-58
2023/03/09 05:56:54;;;;;;;0.00;0.00;;;;;;;5.83;59.14;98611.44;7351048;19;20490;-59
2023/03/09 05:59:20;;;;;;;0.00;0.00;;;;;;;5.86;58.85;98610.47;7355688;19;20467;-58
2023/03/09 06:01:46;;;;;;;0.10;0.10;;;;;;;5.84;58.83;98612.28;7356549;19;20017;-58
2023/03/09 06:04:11;;;;;;;0.10;0.10;;;;;;;5.81;59.55;98613.22;7353967;19;20014;-59
2023/03/09 06:06:36;;;;;;;0.00;0.00;;;;;;;5.80;59.86;98616.72;7353783;19;20472;-59
2023/03/09 06:09:02;;;;;;;0.00;0.00;;;;;;;5.79;59.61;98617.63;7357671;19;20039;-58
2023/03/09 06:11:27;;;;;;;0.00;0.00;;;;;;;5.79;59.57;98609.88;7362089;19;20082;-58
2023/03/09 06:13:54;;;;;;;0.00;0.00;;;;;;;5.78;59.57;98599.53;7356117;19;20026;-58
2023/03/09 06:16:20;;;;;;;0.10;0.10;;;;;;;5.76;60.37;98603.94;7358052;19;20028;-58
2023/03/09 06:18:45;;;;;;;0.05;0.05;;;;;;;5.75;60.32;98613.47;7361053;19;20439;-58
2023/03/09 06:21:12;;;;;;;0.00;0.00;;;;;;;5.68;59.65;98599.91;7359997;19;20006;-58
2023/03/09 06:23:38;;;;;;;0.10;0.10;;;;;;;5.74;60.00;98611.78;7360484;19;20018;-58
2023/03/09 06:26:05;;;;;;;0.00;0.00;;;;;;;5.73;60.03;98610.09;7359960;19;20542;-58
2023/03/09 06:28:31;;;;;;;0.10;0.10;;;;;;;5.73;60.29;98612.69;7362242;19;20569;-58
2023/03/09 06:30:56;;;;;;;0.05;0.05;;;;;;;5.72;60.14;98609.22;7360589;19;20018;-58
2023/03/09 06:33:22;;;;;;;0.03;0.03;;;;;;;5.73;60.17;98610.09;7355180;19;20656;-58
2023/03/09 06:35:47;;;;;;;0.00;0.00;;;;;;;5.72;59.34;98603.22;7360579;19;20017;-58
2023/03/09 06:38:13;;;;;;;0.00;0.00;;;;;;;5.71;60.23;98602.38;7360071;19;20022;-58
2023/03/09 06:40:38;;;;;;;0.00;0.00;;;;;;;5.70;60.45;98602.44;7363249;19;20053;-59
2023/03/09 06:43:04;;;;;;;0.00;0.00;;;;;;;5.72;59.84;98593.69;7354906;19;20021;-58
2023/03/09 06:45:29;;;;;;;0.00;0.00;;;;;;;5.69;60.55;98587.81;7362462;19;20462;-58
2023/03/09 06:47:56;;;;;;;0.10;0.10;;;;;;;5.72;60.13;98601.47;7355193;19;20478;-58
2023/03/09 06:50:23;;;;;;;0.03;0.03;;;;;;;5.71;60.14;98602.38;7362148;19;20022;-58
2023/03/09 06:52:49;;;;;;;0.00;0.00;;;;;;;5.71;60.34;98599.78;7357612;19;20564;-58
2023/03/09 06:55:14;;;;;;;0.00;0.00;;;;;;;5.72;60.25;98600.63;7360705;19;20018;-58
2023/03/09 06:57:39;;;;;;;0.00;0.00;;;;;;;5.72;59.96;98598.03;7349648;19;20013;-57
2023/03/09 07:00:07;;;;;;;0.10;0.10;;;;;;;5.71;60.38;98604.13;7355841;19;20014;-59
2023/03/09 07:02:32;;;;;;;0.10;0.10;;;;;;;5.70;60.47;98599.84;7357380;19;20030;-59
2023/03/09 07:04:57;;;;;;;0.00;0.00;;;;;;;5.70;60.22;98600.69;7358583;19;20145;-58
2023/03/09 07:07:23;;;;;;;0.00;0.00;;;;;;;5.61;59.85;98571.69;7355528;19;20776;-58
2023/03/09 07:09:48;;;;;;;0.00;0.00;;;;;;;5.68;60.15;98581.78;7358883;19;20031;-58
2023/03/09 07:12:14;;;;;;;0.10;0.10;;;;;;;5.66;60.37;98585.31;7356169;19;20014;-59
2023/03/09 07:14:40;;;;;;;0.05;0.05;;;;;;;5.69;60.30;98578.28;7353030;19;20852;-57
2023/03/09 07:17:05;;;;;;;0.00;0.00;;;;;;;5.68;60.32;98586.97;7357555;19;20010;-58
2023/03/09 07:19:31;;;;;;;0.10;0.10;;;;;;;5.67;59.69;98574.88;7354610;19;20019;-57
2023/03/09 07:21:56;;;;;;;0.00;0.00;;;;;;;5.66;59.96;98572.38;7355847;19;20014;-59
2023/03/09 07:24:22;;;;;;;0.10;0.10;;;;;;;5.66;60.68;98572.38;7355940;19;20657;-58
2023/03/09 07:26:48;;;;;;;0.00;0.00;;;;;;;5.68;59.57;98580.94;7356452;19;20031;-58
2023/03/09 07:29:14;;;;;;;0.10;0.10;;;;;;;5.67;60.43;98571.47;7356496;19;20010;-59
2023/03/09 07:31:40;;;;;;;0.00;0.00;;;;;;;5.67;60.63;98574.03;7354989;19;20010;-58
2023/03/09 07:34:05;;;;;;;0.00;0.00;;;;;;;5.66;60.59;98577.53;7357545;19;20069;-58
2023/03/09 07:36:30;;;;;;;0.00;0.00;;;;;;;5.66;60.95;98573.22;7351062;19;20010;-58
2023/03/09 07:38:56;;;;;;;0.10;0.10;;;;;;;5.66;61.02;98572.38;7358665;19;20015;-58
2023/03/09 07:41:21;;;;;;;0.10;0.10;;;;;;;5.65;61.14;98570.69;7354542;19;20080;-58
2023/03/09 07:43:47;;;;;;;0.10;0.10;;;;;;;5.66;60.88;98572.38;7324827;19;20368;-59
2023/03/09 07:46:15;;;;;;;0.00;0.00;;;;;;;5.67;61.31;98576.63;7355023;19;20014;-58
2023/03/09 07:48:40;;;;;;;;;;;;;;;5.70;58.33;98568.78;7357597;19;20381;-59
2023/03/09 07:51:07;;;;;;;0.00;0.00;;;;;;;5.68;60.06;98570.59;7357549;19;19926;-58
2023/03/09 07:53:34;;;;;;;0.00;0.00;;;;;;;5.67;60.01;98569.72;7354638;19;20576;-58
2023/03/09 07:56:03;;;;;;;0.00;0.00;;;;;;;5.66;60.70;98570.63;7350969;19;20491;-58
2023/03/09 07:58:33;;;;;;;0.10;0.10;;;;;;;5.66;61.42;98572.38;7348417;19;20098;-58
2023/03/09 08:00:59;;;;;;;0.10;0.10;;;;;;;5.65;60.40;98575.88;7357997;19;20781;-58
2023/03/09 08:03:24;;;;;;;0.10;0.10;;;;;;;5.64;60.76;98569.00;7358041;19;20027;-58
2023/03/09 08:05:54;;;;;;;0.00;0.00;;;;;;;5.64;61.04;98574.19;7354269;19;20026;-58
2023/03/09 08:08:24;;;;;;;0.00;0.00;;;;;;;5.64;60.99;98584.53;7359743;19;20478;-58
2023/03/09 08:10:51;;;;;;;0.00;0.00;;;;;;;5.64;61.67;98584.53;7357768;19;20086;-59
2023/03/09 08:13:17;;;;;;;0.00;0.00;;;;;;;5.64;61.29;98580.19;7359508;19;20634;-58
2023/03/09 08:15:42;;;;;;;0.10;0.10;;;;;;;5.65;61.57;98581.03;7353671;19;20010;-58
2023/03/09 08:18:08;;;;;;;0.00;0.00;;;;;;;5.66;61.00;98583.56;7358094;19;20014;-60
2023/03/09 08:20:33;;;;;;;0.10;0.10;;;;;;;5.67;61.24;98574.88;7352852;19;20010;-61
2023/03/09 08:22:59;;;;;;;0.00;0.00;;;;;;;5.67;61.46;98576.63;7355306;19;21146;-60
2023/03/09 08:25:25;;;;;;;0.00;0.00;;;;;;;5.68;60.91;98573.16;7358098;19;20014;-61
2023/03/09 08:27:51;;;;;;;0.10;0.10;;;;;;;5.67;61.14;98569.72;7357648;19;20014;-61
2023/03/09 08:30:20;;;;;;;0.00;0.00;;;;;;;5.69;60.75;98577.44;7358047;19;20019;-61
2023/03/09 08:32:50;;;;;;;0.08;0.08;;;;;;;5.69;61.50;98574.84;7360264;19;20044;-60
2023/03/09 08:35:16;;;;;;;0.00;0.00;;;;;;;5.70;60.16;98568.78;7358447;19;20010;-61
2023/03/09 08:37:42;;;;;;;0.00;0.00;;;;;;;5.69;61.04;98572.25;7358655;19;20018;-61
2023/03/09 08:40:08;;;;;;;0.00;0.00;;;;;;;5.69;61.46;98577.44;7353853;19;20006;-61
2023/03/09 08:42:34;;;;;;;0.00;0.00;;;;;;;5.70;61.24;98571.34;7359138;19;22166;-61
2023/03/09 08:45:00;;;;;;;0.00;0.00;;;;;;;5.61;61.10;98553.56;7345626;19;20025;-60
2023/03/09 08:47:26;;;;;;;0.10;0.10;;;;;;;5.72;61.34;98561.78;7359800;19;20030;-60
2023/03/09 08:49:51;;;;;;;0.00;0.00;;;;;;;5.66;61.25;98551.66;7356322;19;20030;-61
2023/03/09 08:52:16;;;;;;;0.00;0.00;;;;;;;5.66;61.20;98536.13;7356458;19;20086;-60
2023/03/09 08:54:42;;;;;;;0.00;0.00;;;;;;;5.73;61.04;98551.38;7360242;19;20010;-60
2023/03/09 08:57:08;;;;;;;0.10;0.10;;;;;;;5.60;61.35;98536.34;7357757;19;20031;-60
2023/03/09 08:59:34;;;;;;;0.00;0.00;;;;;;;5.60;61.04;98526.00;7353458;19;20011;-60
2023/03/09 09:02:00;;;;;;;0.10;0.10;;;;;;;5.75;61.14;98548.72;7358559;19;20011;-60
2023/03/09 09:04:25;;;;;;;0.08;0.08;;;;;;;5.75;61.48;98546.13;7357095;19;20017;-60
2023/03/09 09:06:50;;;;;;;0.00;0.00;;;;;;;5.74;60.95;98539.28;7356763;19;20014;-61
2023/03/09 09:09:16;;;;;;;0.10;0.10;;;;;;;5.75;60.77;98540.97;7354946;19;20037;-61
2023/03/09 09:11:41;;;;;;;0.00;0.00;;;;;;;5.67;60.22;98530.88;7359737;19;20007;-60
2023/03/09 09:14:07;;;;;;;0.00;0.00;;;;;;;5.75;61.18;98529.75;7357728;19;20077;-61
2023/03/09 09:16:33;;;;;;;0.10;0.10;;;;;;;5.74;61.48;98523.75;7358870;19;20014;-61
2023/03/09 09:18:58;;;;;;;0.00;0.00;;;;;;;5.70;61.78;98532.53;7354820;19;20017;-60
2023/03/09 09:21:24;;;;;;;0.00;0.00;;;;;;;5.72;60.99;98534.13;7356034;19;20054;-61
2023/03/09 09:23:51;;;;;;;0.00;0.00;;;;;;;5.66;60.87;98525.75;7357258;19;20675;-60
2023/03/09 09:26:17;;;;;;;0.00;0.00;;;;;;;5.61;61.12;98517.31;7355986;19;20006;-60
2023/03/09 09:28:44;;;;;;;0.00;0.00;;;;;;;5.75;61.36;98540.97;7359171;19;20654;-60
2023/03/09 09:31:12;;;;;;;0.00;0.00;;;;;;;5.76;61.47;98536.63;7354477;19;20624;-59
2023/03/09 09:33:38;;;;;;;0.10;0.10;;;;;;;5.75;62.00;98532.34;7358266;19;20011;-61
2023/03/09 09:36:08;;;;;;;0.00;0.00;;;;;;;5.77;61.68;98528.78;7352509;19;20082;-61
2023/03/09 09:38:34;;;;;;;0.00;0.00;;;;;;;5.77;61.88;98528.78;7356833;19;20014;-60
2023/03/09 09:41:06;;;;;;;0.00;0.00;;;;;;;5.80;61.94;98528.69;7357699;19;20772;-60
2023/03/09 09:43:31;;;;;;;0.00;0.00;;;;;;;5.72;60.56;98509.97;7356182;19;20010;-60
2023/03/09 09:45:59;;;;;;;0.05;0.05;;;;;;;5.82;60.94;98516.50;7356925;19;20607;-61
2023/03/09 09:48:27;;;;;;;0.10;0.10;;;;;;;5.84;61.90;98525.06;7356592;19;20014;-60
2023/03/09 09:51:01;;;;;;;0.00;0.00;;;;;;;5.78;61.29;98506.31;7355964;19;20634;-60
2023/03/09 09:53:46;;;;;;;0.00;0.00;;;;;;;5.89;61.17;98517.97;7357159;19;20494;-61
2023/03/09 09:56:18;;;;;;;0.10;0.10;;;;;;;5.84;60.83;98503.50;7358098;19;20029;-61
2023/03/09 09:58:51;;;;;;;0.00;0.00;;;;;;;5.94;60.78;98510.91;7353855;19;20006;-61
2023/03/09 10:01:27;;;;;;;0.00;0.00;;;;;;;5.95;61.43;98507.41;7357022;19;20010;-60
2023/03/09 10:03:58;;;;;;;0.10;0.10;;;;;;;5.83;61.55;98484.53;7358240;19;20078;-60
2023/03/09 10:06:25;;;;;;;0.10;0.10;;;;;;;5.94;61.54;98499.69;7355959;19;20007;-60
2023/03/09 10:08:55;;;;;;;0.00;0.00;;;;;;;5.94;61.60;98500.53;7354915;19;20018;-60
2023/03/09 10:11:33;;;;;;;0.00;0.00;;;;;;;5.89;61.37;98470.50;7355692;19;20112;-59
2023/03/09 10:14:01;;;;;;;;;;;;;;;5.98;59.12;98471.03;7357488;19;20010;-60
2023/03/09 10:16:31;;;;;;;0.00;0.00;;;;;;;5.97;61.49;98481.41;7354315;19;19919;-60
2023/03/09 10:19:00;;;;;;;0.00;0.00;;;;;;;5.97;60.88;98477.06;7354132;19;20019;-61
2023/03/09 10:21:36;;;;;;;0.00;0.00;;;;;;;5.98;61.64;98481.38;7356389;19;20041;-61
2023/03/09 10:24:31;;;;;;;0.00;0.00;;;;;;;5.96;61.14;98470.22;7353718;19;20467;-60
2023/03/09 10:27:10;;;;;;;0.10;0.10;;;;;;;5.99;61.84;98477.03;7251243;19;2004320;-60
2023/03/09 10:29:42;;;;;;;0.00;0.00;;;;;;;6.00;62.06;98472.69;7358084;19;20017;-60
2023/03/09 10:32:17;;;;;;;0.00;0.00;;;;;;;6.04;61.58;98474.28;7353885;19;20010;-60
2023/03/09 10:34:54;;;;;;;0.10;0.10;;;;;;;6.06;61.63;98472.44;7356953;19;20014;-60
2023/03/09 10:37:24;;;;;;;0.00;0.00;;;;;;;6.07;61.57;98474.13;7350616;19;20078;-60
2023/03/09 10:39:49;;;;;;;0.10;0.10;;;;;;;6.08;62.09;98470.63;7354440;19;20019;-60
2023/03/09 10:42:26;;;;;;;0.00;0.00;;;;;;;6.10;61.04;98474.03;7353622;19;20664;-61
2023/03/09 10:45:02;;;;;;;0.03;0.03;;;;;;;6.13;62.12;98479.06;7355580;19;20014;-60
2023/03/09 10:47:53;;;;;;;0.10;0.10;;;;;;;6.15;60.97;98465.16;7356321;19;20377;-60
2023/03/09 10:50:21;;;;;;;0.05;0.05;;;;;;;6.15;61.35;98466.91;7252925;19;2004378;-61
2023/03/09 10:52:46;;;;;;;;;;;;;;;6.19;59.37;98458.09;7355216;19;20007;-61
2023/03/09 10:55:36;;;;;;;0.10;0.10;;;;;;;6.21;59.92;98451.09;7357821;19;19917;-61
2023/03/09 10:58:22;;;;;;;0.00;0.00;;;;;;;6.23;61.00;98433.72;7256064;19;2004431;-60
2023/03/09 11:00:55;;;;;;;0.00;0.00;;;;;;;6.23;61.45;98434.59;7361891;19;20177;-61
2023/03/09 11:03:29;;;;;;;0.00;0.00;;;;;;;6.26;61.84;98436.19;7359810;19;20017;-61
2023/03/09 11:06:32;;;;;;;0.00;0.00;;;;;;;6.30;62.03;98434.34;7359169;19;20011;-60
2023/03/09 11:09:14;;;;;;;0.10;0.10;;;;;;;6.33;61.45;98426.41;7257085;19;2004430;-60
2023/03/09 11:11:41;;;;;;;0.10;0.10;;;;;;;6.37;61.28;98441.78;7363316;19;20077;-60
2023/03/09 11:14:31;;;;;;;0.00;0.00;;;;;;;6.41;60.19;98432.97;7357848;19;20025;-60
2023/03/09 11:16:59;;;;;;;0.00;0.00;;;;;;;6.38;61.49;98433.09;7362669;19;20014;-60
2023/03/09 11:19:25;;;;;;;0.00;0.00;;;;;;;6.41;61.81;98422.59;7356540;19;20010;-60
2023/03/09 11:21:56;;;;;;;0.00;0.00;;;;;;;6.43;61.44;98420.78;7360261;19;20053;-61
2023/03/09 11:24:27;;;;;;;0.00;0.00;;;;;;;6.46;61.57;98409.44;7358336;19;20475;-60
2023/03/09 11:27:02;;;;;;;0.00;0.00;;;;;;;6.49;61.02;98404.97;7360389;19;20682;-60
2023/03/09 11:29:52;;;;;;;0.10;0.10;;;;;;;6.51;60.94;98407.50;7353228;19;20015;-60
2023/03/09 11:32:18;;;;;;;0.10;0.10;;;;;;;6.47;61.61;98409.38;7361673;19;20027;-60
2023/03/09 11:34:44;;;;;;;0.00;0.00;;;;;;;6.52;62.00;98403.16;7361963;19;20018;-60
2023/03/09 11:37:17;;;;;;;0.00;0.00;;;;;;;6.55;62.40;98403.03;7361093;19;20010;-61
2023/03/09 11:39:50;;;;;;;0.00;0.00;;;;;;;6.55;62.13;98392.66;7359882;19;20074;-60
2023/03/09 11:42:23;;;;;;;0.00;0.00;;;;;;;6.56;62.17;98396.94;7361232;19;20059;-61
2023/03/09 11:44:49;;;;;;;0.08;0.08;;;;;;;6.55;62.22;98403.03;7360494;19;20031;-61